Time;durP1;ratioP1;P1;durP2;ratioP2;P2;SDS_P1;SDS_P2;PMS_P1;PMS_P2;Temp;Humidity;BMP_temperature;BMP_pressure;BME280_temperature;BME280_humidity;BME280_pressure;Samples;Min_cycle;Max_cycle;Signal;HPM_P1;HPM_P2
2021/09/26 00:04:24;;;;;;;11.82;7.78;;;;;;;14.96;73.52;100445.31;8566340;33;20493;-74
2021/09/26 00:09:28;;;;;;;11.57;7.55;;;;;;;14.90;73.51;100441.38;8568752;33;20429;-74
2021/09/26 00:14:33;;;;;;;13.85;9.27;;;;;;;14.79;73.49;100439.72;8567622;33;20426;-74
2021/09/26 00:19:36;;;;;;;16.02;8.90;;;;;;;14.73;74.35;100439.47;8563727;33;20462;-75
2021/09/26 00:24:40;;;;;;;14.25;8.07;;;;;;;14.71;74.37;100442.31;8562044;33;20194;-74
2021/09/26 00:29:44;;;;;;;12.00;8.13;;;;;;;14.64;74.53;100434.97;8562159;33;20657;-75
2021/09/26 00:34:47;;;;;;;11.63;7.68;;;;;;;14.57;74.83;100440.13;8563627;33;20409;-75
2021/09/26 00:39:50;;;;;;;13.90;9.07;;;;;;;14.53;75.32;100442.25;8554609;33;20424;-75
2021/09/26 00:44:55;;;;;;;13.93;8.50;;;;;;;14.47;75.12;100436.59;8549781;33;20835;-75
2021/09/26 00:49:58;;;;;;;12.27;8.23;;;;;;;14.40;75.30;100439.06;8550137;33;20155;-75
2021/09/26 00:55:01;;;;;;;13.77;8.93;;;;;;;14.41;75.59;100438.03;8549298;33;20717;-75
2021/09/26 01:00:07;;;;;;;13.07;8.18;;;;;;;14.37;75.79;100429.38;8546816;33;20179;-75
2021/09/26 01:05:14;;;;;;;15.18;8.70;;;;;;;14.37;75.79;100423.06;8545299;33;20430;-75
2021/09/26 01:10:27;;;;;;;11.85;7.45;;;;;;;14.34;75.84;100431.47;8548782;33;20182;-75
2021/09/26 01:15:56;;;;;;;14.45;8.55;;;;;;;14.28;76.34;100422.13;8547439;33;20523;-75
2021/09/26 01:21:06;;;;;;;15.75;8.48;;;;;;;14.18;76.39;100420.44;8554132;33;20405;-75
2021/09/26 01:26:31;;;;;;;13.23;7.70;;;;;;;14.13;76.77;100421.75;8558839;33;20400;-75
2021/09/26 01:31:41;;;;;;;13.93;8.73;;;;;;;14.03;76.70;100429.03;8551818;33;20497;-75
2021/09/26 01:36:50;;;;;;;12.30;8.32;;;;;;;14.01;77.23;100420.22;8543305;33;21872;-75
2021/09/26 01:42:02;;;;;;;14.93;9.85;;;;;;;13.94;77.25;100417.25;8543900;33;20498;-76
2021/09/26 01:47:10;;;;;;;13.57;9.13;;;;;;;13.90;77.43;100412.28;8538582;33;20144;-75
2021/09/26 01:52:18;;;;;;;13.48;8.48;;;;;;;13.82;77.63;100409.44;8538482;33;20638;-75
2021/09/26 01:57:23;;;;;;;13.95;8.88;;;;;;;13.79;77.52;100401.63;8537806;33;20513;-75
2021/09/26 02:02:29;;;;;;;13.10;8.73;;;;;;;13.73;77.64;100392.28;8540582;33;20470;-74
2021/09/26 02:07:37;;;;;;;13.65;9.23;;;;;;;13.66;77.98;100399.28;8539180;33;20144;-74
2021/09/26 02:12:41;;;;;;;13.30;8.35;;;;;;;13.67;78.23;100396.41;8539809;33;20440;-74
2021/09/26 02:17:48;;;;;;;13.30;9.00;;;;;;;13.65;78.48;100393.00;8547111;33;20148;-74
2021/09/26 02:22:53;;;;;;;16.98;9.25;;;;;;;13.70;78.41;100397.97;8559470;33;20188;-74
2021/09/26 02:27:56;;;;;;;12.00;8.32;;;;;;;13.72;78.60;100393.28;8559133;33;20429;-74
2021/09/26 02:33:01;;;;;;;13.18;8.93;;;;;;;13.71;78.90;100391.56;8561852;33;20454;-74
2021/09/26 02:38:04;;;;;;;14.02;8.88;;;;;;;13.72;78.83;100393.28;8558345;33;21044;-74
2021/09/26 02:43:20;;;;;;;11.23;7.80;;;;;;;13.74;78.32;100379.63;8545701;33;20410;-74
2021/09/26 02:48:29;;;;;;;15.32;9.63;;;;;;;13.70;78.35;100392.56;8544820;33;20417;-74
2021/09/26 02:53:32;;;;;;;10.90;8.35;;;;;;;13.62;78.31;100385.19;8543491;33;20225;-74
2021/09/26 02:58:38;;;;;;;12.32;8.43;;;;;;;13.58;78.45;100385.63;8543442;33;20418;-74
2021/09/26 03:03:43;;;;;;;13.93;8.00;;;;;;;13.54;78.72;100376.13;8543883;33;20439;-74
2021/09/26 03:08:46;;;;;;;12.48;8.23;;;;;;;13.55;78.85;100385.91;8544467;33;20198;-74
2021/09/26 03:13:49;;;;;;;12.25;7.95;;;;;;;13.51;78.77;100374.56;8547577;33;20245;-74
2021/09/26 03:18:53;;;;;;;12.32;7.82;;;;;;;13.42;78.92;100383.50;8557230;33;20238;-74
2021/09/26 03:23:57;;;;;;;11.77;7.20;;;;;;;13.37;78.58;100375.84;8559382;33;20439;-74
2021/09/26 03:29:00;;;;;;;12.27;8.27;;;;;;;13.31;79.00;100383.63;8565108;33;20592;-74
2021/09/26 03:34:05;;;;;;;11.57;7.85;;;;;;;13.34;79.22;100377.94;8562347;33;20426;-74
2021/09/26 03:39:08;;;;;;;12.93;8.27;;;;;;;13.30;78.99;100369.25;8563888;33;20253;-74
2021/09/26 03:44:11;;;;;;;12.32;7.47;;;;;;;13.30;79.30;100371.97;8563950;33;20144;-74
2021/09/26 03:49:15;;;;;;;10.77;7.95;;;;;;;13.29;79.32;100370.28;8560219;33;20677;-73
2021/09/26 03:54:20;;;;;;;13.63;8.93;;;;;;;13.32;79.50;100369.97;8559773;33;21998;-74
2021/09/26 03:59:23;;;;;;;12.20;7.63;;;;;;;13.32;79.24;100366.44;8563266;33;21257;-73
2021/09/26 04:04:27;;;;;;;10.68;8.07;;;;;;;13.24;79.68;100365.28;8561369;33;21054;-73
2021/09/26 04:09:30;;;;;;;13.18;8.57;;;;;;;13.27;79.35;100356.94;8549798;33;20411;-74
2021/09/26 04:14:34;;;;;;;15.00;8.85;;;;;;;13.24;79.27;100351.81;8548761;33;20440;-75
2021/09/26 04:19:38;;;;;;;11.98;7.72;;;;;;;13.25;78.94;100353.53;8554388;33;20219;-74
2021/09/26 04:24:41;;;;;;;15.48;9.25;;;;;;;13.26;79.49;100359.78;8547103;33;20320;-74
2021/09/26 04:29:44;;;;;;;12.43;7.60;;;;;;;13.38;79.23;100347.00;8546289;33;20639;-74
2021/09/26 04:34:49;;;;;;;13.43;8.70;;;;;;;13.42;78.64;100351.13;8545424;33;20214;-74
2021/09/26 04:39:52;;;;;;;14.27;8.60;;;;;;;13.41;78.74;100353.00;8547283;33;20205;-74
2021/09/26 04:44:55;;;;;;;12.88;9.02;;;;;;;13.44;78.79;100355.41;8547502;33;20160;-74
2021/09/26 04:49:59;;;;;;;14.43;7.97;;;;;;;13.55;78.88;100350.81;8549820;33;20180;-75
2021/09/26 04:55:04;;;;;;;11.88;7.88;;;;;;;13.60;78.59;100352.13;8561421;33;20409;-74
2021/09/26 05:00:09;;;;;;;11.70;7.45;;;;;;;13.66;78.55;100353.38;8560611;33;20139;-74
2021/09/26 05:05:14;;;;;;;12.73;8.52;;;;;;;13.76;78.18;100354.19;8552193;33;20492;-74
2021/09/26 05:10:17;;;;;;;10.13;6.60;;;;;;;13.80;78.28;100360.16;8546090;33;20627;-74
2021/09/26 05:15:20;;;;;;;11.15;8.13;;;;;;;13.88;77.71;100349.50;8545661;33;20278;-75
2021/09/26 05:20:24;;;;;;;9.48;7.10;;;;;;;13.93;77.59;100350.75;8544621;33;21486;-74
2021/09/26 05:25:28;;;;;;;11.43;7.38;;;;;;;14.03;77.19;100339.91;8544345;33;21118;-74
2021/09/26 05:30:33;;;;;;;12.27;7.32;;;;;;;14.01;77.26;100336.50;8543796;33;20140;-74
2021/09/26 05:35:38;;;;;;;10.85;6.97;;;;;;;14.02;77.03;100346.31;8544631;33;21220;-73
2021/09/26 05:40:42;;;;;;;9.82;6.75;;;;;;;14.10;77.07;100329.38;8544427;33;20132;-74
2021/09/26 05:45:45;;;;;;;9.90;5.78;;;;;;;14.19;77.03;100328.47;8544381;33;20183;-74
2021/09/26 05:50:50;;;;;;;10.88;6.57;;;;;;;14.25;76.38;100314.34;8544820;33;20217;-74
2021/09/26 05:55:54;;;;;;;8.85;6.20;;;;;;;14.40;76.21;100324.69;8544425;33;21028;-75
2021/09/26 06:00:57;;;;;;;8.98;6.60;;;;;;;14.43;75.60;100332.53;8545248;33;20253;-74
2021/09/26 06:06:01;;;;;;;9.52;6.50;;;;;;;14.52;75.77;100334.31;8541910;33;20175;-74
2021/09/26 06:11:04;;;;;;;9.45;6.97;;;;;;;14.72;74.89;100346.69;8536500;33;20432;-75
2021/09/26 06:16:07;;;;;;;10.38;6.68;;;;;;;14.68;74.94;100345.31;8533542;33;21101;-74
2021/09/26 06:21:12;;;;;;;8.73;5.97;;;;;;;14.79;74.54;100358.59;8538895;33;20471;-75
2021/09/26 06:26:15;;;;;;;8.23;5.13;;;;;;;14.78;74.29;100356.91;8540721;33;20144;-74
2021/09/26 06:31:18;;;;;;;7.90;5.85;;;;;;;14.93;74.31;100362.63;8544588;33;20184;-74
2021/09/26 06:36:23;;;;;;;9.83;6.63;;;;;;;15.03;73.38;100349.91;8544169;33;20441;-72
2021/09/26 06:41:26;;;;;;;12.65;7.78;;;;;;;15.16;73.92;100343.22;8536257;33;20422;-73
2021/09/26 06:46:29;;;;;;;11.10;7.07;;;;;;;15.32;73.00;100350.66;8534989;33;20492;-72
2021/09/26 06:51:34;;;;;;;10.38;7.05;;;;;;;15.22;73.60;100354.31;8542302;33;20182;-72
2021/09/26 06:56:38;;;;;;;9.95;7.07;;;;;;;15.47;72.65;100360.81;8555098;33;20926;-73
2021/09/26 07:01:41;;;;;;;10.38;6.32;;;;;;;15.66;71.88;100367.00;8559323;33;20147;-72
2021/09/26 07:06:46;;;;;;;10.00;6.97;;;;;;;15.83;70.41;100365.31;8562733;33;20187;-72
2021/09/26 07:11:49;;;;;;;12.90;6.85;;;;;;;16.17;70.01;100367.19;8564564;33;20237;-72
2021/09/26 07:16:52;;;;;;;11.20;6.38;;;;;;;16.39;69.11;100358.50;8568512;33;20482;-73
2021/09/26 07:21:57;;;;;;;7.78;6.13;;;;;;;16.58;68.28;100363.66;8563841;33;20430;-73
2021/09/26 07:27:00;;;;;;;9.65;6.55;;;;;;;16.69;67.21;100370.66;8560902;33;20211;-73
2021/09/26 07:32:04;;;;;;;9.43;6.90;;;;;;;17.00;66.54;100370.91;8554509;33;20239;-74
2021/09/26 07:37:09;;;;;;;10.07;6.57;;;;;;;17.29;65.36;100387.78;8535430;33;20398;-73
2021/09/26 07:42:13;;;;;;;8.60;6.03;;;;;;;17.53;64.95;100395.09;8520114;33;20396;-72
2021/09/26 07:47:16;;;;;;;8.27;6.05;;;;;;;17.67;64.84;100384.38;8528693;33;20601;-72
2021/09/26 07:52:20;;;;;;;7.28;6.25;;;;;;;18.02;63.63;100386.91;8509951;33;20445;-73
2021/09/26 07:57:24;;;;;;;8.02;6.13;;;;;;;18.31;62.75;100394.50;8520182;33;20568;-72
2021/09/26 08:02:27;;;;;;;6.47;5.55;;;;;;;18.91;62.07;100390.34;8503733;33;21268;-72
2021/09/26 08:07:33;;;;;;;8.15;6.10;;;;;;;19.24;60.74;100382.81;8529062;33;20173;-73
2021/09/26 08:12:36;;;;;;;8.63;5.60;;;;;;;19.61;59.54;100362.13;8491059;33;20188;-72
2021/09/26 08:17:39;;;;;;;6.97;5.90;;;;;;;18.84;61.37;100371.19;8489197;33;20464;-72
2021/09/26 08:22:44;;;;;;;8.77;5.88;;;;;;;18.47;62.51;100385.44;8490726;33;20431;-71
2021/09/26 08:27:47;;;;;;;9.65;6.38;;;;;;;18.47;62.53;100388.16;8489357;33;20140;-72
2021/09/26 08:32:50;;;;;;;7.57;5.55;;;;;;;19.32;60.63;100395.53;8490176;33;20184;-72
2021/09/26 08:37:56;;;;;;;8.07;6.03;;;;;;;20.06;58.77;100388.44;8501721;33;21301;-72
2021/09/26 08:42:59;;;;;;;7.60;5.20;;;;;;;20.96;56.62;100391.97;8503700;33;20180;-73
2021/09/26 08:48:03;;;;;;;7.72;5.90;;;;;;;20.68;56.96;100386.38;8504635;33;20433;-72
2021/09/26 08:53:08;;;;;;;6.50;5.60;;;;;;;21.31;56.77;100383.97;8505921;33;20305;-73
2021/09/26 08:58:11;;;;;;;7.18;5.28;;;;;;;21.75;55.02;100378.31;8494520;33;20428;-73
2021/09/26 09:03:15;;;;;;;7.00;5.47;;;;;;;21.99;54.06;100370.69;8486472;33;20412;-74
2021/09/26 09:08:22;;;;;;;7.03;6.00;;;;;;;22.43;53.49;100378.56;8489193;33;20446;-72
2021/09/26 09:13:31;;;;;;;13.38;5.47;;;;;;;22.70;52.62;100373.22;8490018;33;20453;-71
2021/09/26 09:18:43;;;;;;;6.88;5.13;;;;;;;23.03;51.61;100381.53;8486554;33;21881;-73
2021/09/26 09:23:50;;;;;;;9.20;5.20;;;;;;;23.57;52.07;100369.66;8484074;33;20480;-72
2021/09/26 09:28:54;;;;;;;6.63;5.63;;;;;;;23.93;49.84;100368.41;8491658;33;20248;-72
2021/09/26 09:33:57;;;;;;;6.28;5.18;;;;;;;23.81;50.65;100370.13;8487581;33;20130;-72
2021/09/26 09:39:06;;;;;;;7.33;5.67;;;;;;;23.56;51.08;100378.06;8487708;33;20836;-73
2021/09/26 09:44:13;;;;;;;7.07;5.30;;;;;;;24.03;50.69;100363.34;8486954;33;20419;-73
2021/09/26 09:49:19;;;;;;;7.63;5.18;;;;;;;24.55;49.45;100360.69;8487903;33;20523;-73
2021/09/26 09:54:35;;;;;;;6.68;5.40;;;;;;;24.32;48.49;100367.47;8514932;33;21136;-75
2021/09/26 09:59:38;;;;;;;6.93;5.45;;;;;;;23.34;51.13;100377.41;8543329;33;20194;-75
2021/09/26 10:04:44;;;;;;;7.10;5.57;;;;;;;23.75;50.97;100379.13;8542264;33;20586;-75
2021/09/26 10:09:50;;;;;;;7.93;5.65;;;;;;;23.69;50.61;100386.31;8545016;33;21837;-73
2021/09/26 10:14:56;;;;;;;5.75;5.10;;;;;;;23.55;51.66;100374.50;8545882;33;20237;-75
2021/09/26 10:19:59;;;;;;;6.72;5.32;;;;;;;23.70;50.43;100378.94;8550216;33;20239;-74
2021/09/26 10:25:06;;;;;;;8.90;5.88;;;;;;;24.57;48.79;100377.75;8544019;33;20476;-75
2021/09/26 10:30:12;;;;;;;6.75;5.45;;;;;;;24.60;48.20;100371.00;8541952;33;20156;-76
2021/09/26 10:35:15;;;;;;;7.55;5.35;;;;;;;24.83;48.75;100365.84;8540440;33;20148;-73
2021/09/26 10:40:20;;;;;;;6.78;5.40;;;;;;;25.34;47.34;100370.44;8538272;33;20144;-74
2021/09/26 10:45:28;;;;;;;11.23;5.57;;;;;;;25.31;47.00;100364.50;8538749;33;20152;-74
2021/09/26 10:50:36;;;;;;;6.47;5.38;;;;;;;24.96;48.09;100363.03;8526756;33;20222;-73
2021/09/26 10:55:41;;;;;;;7.25;5.97;;;;;;;24.46;49.37;100365.56;8516911;33;20436;-74
2021/09/26 11:00:54;;;;;;;8.52;5.57;;;;;;;24.89;48.23;100362.19;8515694;33;20934;-74
2021/09/26 11:05:58;;;;;;;7.30;5.97;;;;;;;24.87;48.29;100368.97;8523144;33;20716;-74
2021/09/26 11:11:06;;;;;;;7.65;5.90;;;;;;;25.07;48.53;100378.00;8521290;33;20422;-75
2021/09/26 11:16:16;;;;;;;8.82;6.22;;;;;;;25.31;48.02;100376.34;8519679;33;20860;-75
2021/09/26 11:22:05;;;;;;;10.13;5.80;;;;;;;26.98;44.74;100377.50;8532387;33;20932;-75
2021/09/26 11:27:19;;;;;;;8.43;5.47;;;;;;;27.34;43.82;100371.00;8505463;33;20419;-75
2021/09/26 11:32:33;;;;;;;7.80;6.57;;;;;;;26.88;43.94;100383.56;8512116;33;20581;-74
2021/09/26 11:37:53;;;;;;;7.35;6.30;;;;;;;26.20;45.32;100387.28;8519025;33;20460;-74
2021/09/26 11:42:57;;;;;;;6.43;5.63;;;;;;;26.24;45.75;100383.84;8511325;33;21525;-76
2021/09/26 11:48:03;;;;;;;7.90;6.53;;;;;;;25.43;47.23;100381.16;8509234;33;20942;-76
2021/09/26 11:53:07;;;;;;;7.45;6.22;;;;;;;26.29;46.09;100375.75;8511177;33;20447;-75
2021/09/26 11:58:13;;;;;;;7.72;6.43;;;;;;;25.42;48.31;100377.53;8526829;33;20603;-75
2021/09/26 12:03:24;;;;;;;8.35;5.82;;;;;;;24.81;50.07;100369.88;8538087;33;20423;-75
2021/09/26 12:08:37;;;;;;;8.40;6.03;;;;;;;26.01;47.92;100359.72;8540725;33;20227;-75
2021/09/26 12:13:49;;;;;;;9.20;5.80;;;;;;;27.91;44.23;100352.03;8541753;33;20511;-76
2021/09/26 12:18:55;;;;;;;8.77;5.60;;;;;;;27.23;44.90;100349.75;8503870;33;20536;-76
2021/09/26 12:24:06;;;;;;;8.77;5.50;;;;;;;25.78;48.33;100354.88;8505741;33;20420;-76
2021/09/26 12:29:18;;;;;;;7.40;5.78;;;;;;;25.94;48.46;100347.09;8489454;33;20512;-76
2021/09/26 12:34:28;;;;;;;7.25;5.50;;;;;;;25.36;49.13;100345.44;8484852;33;20321;-76
2021/09/26 12:39:37;;;;;;;8.55;6.15;;;;;;;25.18;50.43;100346.22;8484386;33;20499;-74
2021/09/26 12:44:41;;;;;;;9.95;6.13;;;;;;;26.91;47.53;100328.00;8485715;33;20500;-74
2021/09/26 12:49:48;;;;;;;7.30;6.28;;;;;;;26.17;47.70;100333.53;8483687;33;20203;-74
2021/09/26 12:54:58;;;;;;;10.70;5.85;;;;;;;25.95;49.03;100335.03;8478828;33;20259;-75
2021/09/26 13:00:19;;;;;;;7.35;5.88;;;;;;;26.39;47.62;100335.84;8483632;33;20433;-74
2021/09/26 13:05:32;;;;;;;8.07;5.90;;;;;;;25.59;49.62;100347.63;8479639;33;20144;-74
2021/09/26 13:10:40;;;;;;;6.10;5.50;;;;;;;24.26;52.32;100343.63;8483646;33;20606;-74
2021/09/26 13:15:44;;;;;;;8.18;6.50;;;;;;;25.48;50.03;100343.69;8488744;33;21281;-74
2021/09/26 13:20:49;;;;;;;7.07;6.00;;;;;;;28.01;44.54;100334.94;8488059;33;20413;-74
2021/09/26 13:25:56;;;;;;;7.50;5.60;;;;;;;29.84;40.56;100338.72;8479526;33;20664;-74
2021/09/26 13:31:13;;;;;;;7.10;5.93;;;;;;;26.85;44.98;100328.91;8479358;33;21216;-74
2021/09/26 13:36:32;;;;;;;8.68;5.90;;;;;;;26.76;45.47;100324.78;8479214;33;20625;-74
2021/09/26 13:41:43;;;;;;;7.13;5.50;;;;;;;28.56;42.03;100317.06;8484089;33;20509;-74
2021/09/26 13:46:47;;;;;;;7.93;5.88;;;;;;;29.46;40.16;100319.03;8489236;33;20736;-74
2021/09/26 13:51:50;;;;;;;7.60;5.88;;;;;;;29.41;40.70;100321.72;8488139;33;20934;-74
2021/09/26 13:56:54;;;;;;;8.00;6.15;;;;;;;28.49;41.94;100318.00;8489054;33;20534;-74
2021/09/26 14:01:58;;;;;;;7.85;5.95;;;;;;;29.71;39.53;100329.69;8489371;33;20408;-75
2021/09/26 14:07:01;;;;;;;7.75;6.10;;;;;;;26.11;46.42;100339.06;8489168;33;20148;-74
2021/09/26 14:12:08;;;;;;;8.38;6.13;;;;;;;25.43;47.75;100334.41;8483966;33;20452;-74
2021/09/26 14:17:14;;;;;;;7.72;5.78;;;;;;;25.76;47.47;100324.00;8482668;33;20459;-74
2021/09/26 14:22:17;;;;;;;8.30;6.80;;;;;;;25.24;48.64;100325.25;8482112;33;20188;-74
2021/09/26 14:27:21;;;;;;;8.73;6.30;;;;;;;25.19;48.82;100332.25;8483425;33;20191;-74
2021/09/26 14:32:25;;;;;;;8.32;6.90;;;;;;;24.82;49.60;100336.69;8487537;33;20934;-74
2021/09/26 14:37:28;;;;;;;9.35;6.20;;;;;;;24.60;50.21;100329.81;8485366;33;20637;-74
2021/09/26 14:42:33;;;;;;;8.18;5.70;;;;;;;24.39;49.84;100314.47;8486372;33;20899;-74
2021/09/26 14:47:36;;;;;;;9.35;6.20;;;;;;;24.30;50.29;100316.63;8484069;33;20160;-74
2021/09/26 14:52:41;;;;;;;10.73;6.35;;;;;;;25.06;48.73;100326.00;8481347;33;21819;-74
2021/09/26 14:57:48;;;;;;;7.05;5.90;;;;;;;24.60;49.17;100325.19;8480987;33;20553;-74
2021/09/26 15:02:51;;;;;;;7.82;5.93;;;;;;;25.07;48.18;100324.97;8484096;33;20798;-74
2021/09/26 15:07:54;;;;;;;6.72;5.20;;;;;;;25.47;47.74;100327.38;8485517;33;20160;-74
2021/09/26 15:12:59;;;;;;;6.15;5.50;;;;;;;25.81;46.29;100315.91;8486367;33;20484;-74
2021/09/26 15:18:02;;;;;;;7.75;5.30;;;;;;;25.87;47.17;100316.06;8486662;33;20134;-74
2021/09/26 15:23:08;;;;;;;6.45;4.95;;;;;;;25.65;47.28;100319.22;8485634;33;20654;-75
2021/09/26 15:28:12;;;;;;;6.03;4.68;;;;;;;25.50;47.03;100313.19;8487287;33;20626;-74
2021/09/26 15:33:16;;;;;;;5.97;4.53;;;;;;;24.95;47.97;100322.84;8484711;33;20414;-74
2021/09/26 15:38:19;;;;;;;6.18;4.60;;;;;;;24.00;50.21;100324.50;8483219;33;20188;-74
2021/09/26 15:43:27;;;;;;;8.73;4.72;;;;;;;23.55;51.94;100325.16;8487003;33;21337;-75
2021/09/26 15:48:32;;;;;;;7.57;4.57;;;;;;;23.12;52.56;100328.31;8487389;33;21575;-74
2021/09/26 15:53:35;;;;;;;5.47;4.38;;;;;;;23.01;52.59;100326.16;8489109;33;20180;-74
2021/09/26 15:58:40;;;;;;;5.93;4.40;;;;;;;22.87;53.14;100316.19;8503297;33;20217;-74
2021/09/26 16:03:43;;;;;;;5.18;3.92;;;;;;;22.69;53.65;100312.16;8516418;33;20160;-74
2021/09/26 16:08:48;;;;;;;5.38;4.32;;;;;;;22.62;54.06;100322.22;8515071;33;20417;-74
2021/09/26 16:13:52;;;;;;;6.30;4.50;;;;;;;22.48;54.15;100317.75;8514413;33;20147;-74
2021/09/26 16:18:55;;;;;;;5.93;4.18;;;;;;;22.42;54.57;100318.53;8537437;33;20406;-74
2021/09/26 16:23:58;;;;;;;8.57;4.47;;;;;;;22.33;54.29;100323.34;8540722;33;20416;-73
2021/09/26 16:29:06;;;;;;;5.28;4.32;;;;;;;22.19;55.09;100322.44;8540466;33;20469;-74
2021/09/26 16:34:10;;;;;;;6.82;4.35;;;;;;;22.11;55.16;100312.50;8538443;33;20847;-75
2021/09/26 16:39:13;;;;;;;4.88;4.00;;;;;;;22.07;55.46;100310.38;8523625;33;20688;-74
2021/09/26 16:44:18;;;;;;;6.35;4.78;;;;;;;21.95;55.46;100320.19;8478904;33;20222;-74
2021/09/26 16:49:21;;;;;;;5.78;4.53;;;;;;;21.85;55.38;100307.72;8478954;33;20416;-74
2021/09/26 16:54:25;;;;;;;5.22;3.85;;;;;;;21.69;55.85;100316.19;8482616;33;22229;-74
2021/09/26 16:59:32;;;;;;;8.93;5.18;;;;;;;21.56;56.55;100329.78;8528360;33;20415;-74
2021/09/26 17:04:35;;;;;;;6.95;4.22;;;;;;;21.49;57.15;100324.22;8544785;33;20189;-75
2021/09/26 17:09:38;;;;;;;6.35;4.47;;;;;;;21.36;57.45;100326.84;8546151;33;20189;-75
2021/09/26 17:14:43;;;;;;;7.53;5.03;;;;;;;21.13;58.13;100335.25;8546256;33;20152;-75
2021/09/26 17:19:46;;;;;;;7.40;4.85;;;;;;;21.15;58.33;100341.38;8553884;33;20423;-75
2021/09/26 17:24:49;;;;;;;5.70;5.03;;;;;;;20.96;59.48;100348.28;8555335;33;20447;-76
2021/09/26 17:29:54;;;;;;;9.13;6.35;;;;;;;20.72;61.22;100352.22;8547339;33;20457;-76
2021/09/26 17:34:56;;;;;;;9.55;5.97;;;;;;;20.43;62.40;100358.56;8547488;33;20910;-77
2021/09/26 17:40:01;;;;;;;9.85;5.38;;;;;;;20.00;63.68;100363.81;8541781;33;20413;-76
2021/09/26 17:45:08;;;;;;;8.80;5.78;;;;;;;19.09;68.42;100381.91;8542388;33;20535;-76
2021/09/26 17:50:12;;;;;;;8.52;6.50;;;;;;;18.58;71.50;100396.78;8539146;33;20436;-77
2021/09/26 17:55:15;;;;;;;10.48;6.78;;;;;;;17.94;75.43;100395.91;8538309;33;20217;-76
2021/09/26 18:00:24;;;;;;;10.52;6.55;;;;;;;17.67;77.31;100400.69;8536236;33;20433;-76
2021/09/26 18:05:28;;;;;;;9.38;6.22;;;;;;;17.65;79.14;100407.31;8539149;33;20422;-76
2021/09/26 18:10:36;;;;;;;11.40;7.20;;;;;;;17.72;80.68;100421.03;8538884;33;20217;-76
2021/09/26 18:15:42;;;;;;;7.93;6.05;;;;;;;17.77;78.79;100413.25;8536469;33;20172;-76
2021/09/26 18:20:52;;;;;;;10.05;7.47;;;;;;;17.91;80.91;100424.28;8539744;33;20888;-76
2021/09/26 18:25:57;;;;;;;10.93;7.25;;;;;;;17.93;79.15;100427.66;8539502;33;20487;-76
2021/09/26 18:31:04;;;;;;;10.48;7.38;;;;;;;17.93;80.61;100418.66;8538785;33;20188;-75
2021/09/26 18:36:10;;;;;;;11.15;8.23;;;;;;;17.89;80.02;100434.47;8525532;33;20156;-75
2021/09/26 18:41:17;;;;;;;12.88;8.65;;;;;;;17.83;81.24;100435.16;8506184;33;20421;-76
2021/09/26 18:46:23;;;;;;;12.00;7.97;;;;;;;17.89;83.61;100439.06;8505295;33;20194;-75
2021/09/26 18:51:29;;;;;;;12.38;7.75;;;;;;;17.74;83.62;100425.28;8509331;33;20421;-76
2021/09/26 18:56:34;;;;;;;11.63;8.02;;;;;;;17.80;84.98;100437.34;8524074;33;20173;-75
2021/09/26 19:01:38;;;;;;;14.02;8.88;;;;;;;17.70;84.63;100449.25;8556488;33;20145;-75
2021/09/26 19:06:42;;;;;;;10.63;8.45;;;;;;;17.86;86.24;100453.00;8558066;33;20124;-75
2021/09/26 19:11:45;;;;;;;10.13;8.30;;;;;;;17.90;86.53;100444.31;8545260;33;20234;-77
2021/09/26 19:16:49;;;;;;;13.15;8.98;;;;;;;17.86;86.30;100453.00;8540933;33;20154;-76
2021/09/26 19:21:52;;;;;;;15.57;8.95;;;;;;;17.73;85.10;100449.94;8540073;33;20493;-76
2021/09/26 19:27:01;;;;;;;12.90;8.07;;;;;;;17.70;82.56;100456.53;8542331;33;20437;-76
2021/09/26 19:32:07;;;;;;;12.93;8.65;;;;;;;17.77;81.35;100462.13;8542792;33;20794;-76
2021/09/26 19:37:10;;;;;;;11.52;7.97;;;;;;;17.81;81.37;100464.34;8541963;33;20202;-76
2021/09/26 19:42:13;;;;;;;13.85;8.43;;;;;;;17.83;81.66;100456.91;8534186;33;20404;-76
2021/09/26 19:47:17;;;;;;;13.00;8.18;;;;;;;17.86;79.59;100469.28;8491434;33;20285;-75
2021/09/26 19:52:20;;;;;;;12.68;8.68;;;;;;;17.90;81.28;100476.06;8516433;33;20630;-75
2021/09/26 19:57:23;;;;;;;17.20;10.52;;;;;;;17.98;82.34;100467.09;8517733;33;21208;-75
2021/09/26 20:02:28;;;;;;;13.50;9.60;;;;;;;17.97;82.33;100468.97;8517830;33;21153;-75
2021/09/26 20:07:31;;;;;;;14.43;10.23;;;;;;;18.09;83.83;100469.47;8522183;33;20444;-75
2021/09/26 20:12:34;;;;;;;15.13;9.93;;;;;;;18.10;84.66;100474.75;8531309;33;20471;-76
2021/09/26 20:17:39;;;;;;;13.43;8.85;;;;;;;18.12;85.15;100472.69;8548292;33;20471;-76
2021/09/26 20:22:43;;;;;;;14.23;10.07;;;;;;;18.10;85.63;100461.16;8545521;33;20206;-75
2021/09/26 20:27:46;;;;;;;14.68;10.77;;;;;;;18.00;85.71;100451.47;8491516;33;20180;-75
2021/09/26 20:32:51;;;;;;;14.18;10.25;;;;;;;17.99;86.36;100455.19;8480364;33;20459;-76
2021/09/26 20:37:56;;;;;;;17.50;10.07;;;;;;;17.98;86.30;100457.06;8493893;33;20129;-76
2021/09/26 20:43:00;;;;;;;13.88;10.55;;;;;;;17.97;86.02;100449.06;8518925;33;20133;-76
2021/09/26 20:48:06;;;;;;;16.25;10.30;;;;;;;17.93;84.94;100451.25;8534196;33;20404;-76
2021/09/26 20:53:09;;;;;;;12.57;10.05;;;;;;;17.93;85.22;100446.66;8533813;33;20175;-75
2021/09/26 20:58:13;;;;;;;16.05;10.30;;;;;;;17.87;84.96;100447.38;8539952;33;20183;-75
2021/09/26 21:03:19;;;;;;;14.98;9.68;;;;;;;17.70;83.39;100459.25;8540336;33;21008;-76
2021/09/26 21:08:22;;;;;;;15.20;10.55;;;;;;;17.57;84.43;100458.91;8512258;33;20168;-75
2021/09/26 21:13:25;;;;;;;13.77;10.05;;;;;;;17.62;85.24;100457.38;8511690;33;20172;-75
2021/09/26 21:18:30;;;;;;;15.48;9.32;;;;;;;17.63;84.24;100460.94;8537634;33;20415;-75
2021/09/26 21:23:33;;;;;;;13.77;9.93;;;;;;;17.57;84.36;100462.47;8540433;33;20148;-75
2021/09/26 21:28:37;;;;;;;12.43;9.10;;;;;;;17.55;84.91;100455.50;8541860;33;20154;-75
2021/09/26 21:33:42;;;;;;;16.05;10.05;;;;;;;17.64;85.83;100457.22;8541113;33;20183;-75
2021/09/26 21:38:45;;;;;;;12.00;9.02;;;;;;;17.65;86.08;100448.91;8543185;33;20246;-75
2021/09/26 21:43:48;;;;;;;13.82;10.95;;;;;;;17.59;84.72;100451.44;8545961;33;20244;-75
2021/09/26 21:48:52;;;;;;;14.60;9.73;;;;;;;17.61;85.11;100449.41;8547240;33;20824;-75
2021/09/26 21:53:55;;;;;;;13.20;9.50;;;;;;;17.66;85.73;100449.75;8540399;33;20573;-75
2021/09/26 21:58:58;;;;;;;12.55;9.48;;;;;;;17.64;86.03;100457.22;8540518;33;20426;-75
2021/09/26 22:04:03;;;;;;;13.07;9.45;;;;;;;17.57;86.42;100456.19;8540211;33;20420;-75
2021/09/26 22:09:06;;;;;;;15.85;10.15;;;;;;;17.53;86.30;100455.69;8540959;33;20832;-76
2021/09/26 22:14:09;;;;;;;15.88;11.15;;;;;;;17.60;86.65;100466.72;8542463;33;20179;-75
2021/09/26 22:19:13;;;;;;;13.25;10.30;;;;;;;17.64;86.71;100459.94;8550594;33;20144;-75
2021/09/26 22:24:18;;;;;;;14.50;10.40;;;;;;;17.66;86.63;100460.59;8552693;33;22769;-75
2021/09/26 22:29:26;;;;;;;18.15;10.70;;;;;;;17.62;85.69;100449.22;8547456;33;20172;-74
2021/09/26 22:34:30;;;;;;;14.93;10.60;;;;;;;17.56;84.42;100454.50;8549254;33;20152;-75
2021/09/26 22:39:33;;;;;;;14.48;10.90;;;;;;;17.62;84.38;100460.09;8554442;33;21303;-75
2021/09/26 22:44:36;;;;;;;16.48;10.52;;;;;;;17.63;84.02;100450.06;8560443;33;20534;-75
2021/09/26 22:49:41;;;;;;;13.85;9.88;;;;;;;17.62;83.76;100446.53;8562803;33;20430;-75
2021/09/26 22:54:44;;;;;;;15.32;9.60;;;;;;;17.50;83.46;100449.72;8562292;33;20591;-75
2021/09/26 22:59:47;;;;;;;13.30;9.25;;;;;;;17.41;83.49;100441.56;8550587;33;20227;-76
2021/09/26 23:04:51;;;;;;;14.18;9.82;;;;;;;17.41;83.74;100441.56;8547408;33;20144;-75
2021/09/26 23:09:54;;;;;;;12.27;9.43;;;;;;;17.30;82.87;100455.47;8545132;33;20183;-76
2021/09/26 23:14:57;;;;;;;14.45;9.68;;;;;;;17.24;83.11;100450.72;8546612;33;20753;-75
2021/09/26 23:20:02;;;;;;;13.02;9.38;;;;;;;17.24;82.67;100456.97;8556448;33;20303;-75
2021/09/26 23:25:06;;;;;;;15.60;10.48;;;;;;;17.26;83.00;100456.81;8560822;33;21747;-75
2021/09/26 23:30:12;;;;;;;15.07;10.00;;;;;;;17.29;81.61;100455.66;8561705;33;20240;-75